TUI39R LGAV-LGHI
Flight info
| Callsign | TUI39R |
|---|---|
| Flight time | N/A |
| Altitude | 19000 |
| Route | KRO DCT OGSIL DCT SOSIR DCT PANOX |
| Aircraft | B738/M-SDE2E3FGHIRWXY/LB1 |
Departure
| Time | N/A |
|---|---|
| Airport | Athens Eleftherios Venizelos International Airport (LGAV) |
Arrival
| Time | 2026-04-21 10:34 |
|---|---|
| Airport | Chios Island National Airport (LGHI) |
| Time | Latitude | Longitude | Altitude | Speed | Heading |
|---|---|---|---|---|---|
| 2026-04-21 09:55 | 37.87343 | 24.41781 | 18968 ft | 434 kts | 63° |
| 2026-04-21 09:55 | 37.88698 | 24.45210 | 18968 ft | 434 kts | 63° |
| 2026-04-21 09:55 | 37.90055 | 24.48649 | 18966 ft | 435 kts | 63° |
| 2026-04-21 09:56 | 37.91396 | 24.52048 | 18968 ft | 435 kts | 63° |
| 2026-04-21 09:56 | 37.92750 | 24.55486 | 18972 ft | 434 kts | 63° |
| 2026-04-21 09:56 | 37.94087 | 24.58884 | 18976 ft | 434 kts | 63° |
| 2026-04-21 09:56 | 37.95445 | 24.62340 | 18980 ft | 434 kts | 63° |
| 2026-04-21 09:57 | 37.96773 | 24.65723 | 18983 ft | 434 kts | 63° |
| 2026-04-21 09:57 | 37.97966 | 24.68761 | 18987 ft | 433 kts | 63° |
| 2026-04-21 09:57 | 37.99042 | 24.71505 | 18990 ft | 433 kts | 63° |
| 2026-04-21 09:57 | 38.00125 | 24.74271 | 18993 ft | 433 kts | 64° |
| 2026-04-21 09:58 | 38.01096 | 24.76751 | 18993 ft | 433 kts | 64° |
| 2026-04-21 09:58 | 38.02162 | 24.79479 | 18993 ft | 433 kts | 64° |
| 2026-04-21 09:58 | 38.03406 | 24.82664 | 18993 ft | 433 kts | 64° |
| 2026-04-21 09:58 | 38.04408 | 24.85233 | 18993 ft | 433 kts | 64° |
| 2026-04-21 09:59 | 38.05745 | 24.88663 | 18993 ft | 433 kts | 64° |
| 2026-04-21 09:59 | 38.07103 | 24.92150 | 18993 ft | 433 kts | 64° |
| 2026-04-21 09:59 | 38.08443 | 24.95596 | 18993 ft | 433 kts | 64° |
| 2026-04-21 09:59 | 38.09783 | 24.99048 | 18993 ft | 434 kts | 63° |
| 2026-04-21 10:00 | 38.11131 | 25.02525 | 18993 ft | 435 kts | 63° |
| 2026-04-21 10:00 | 38.12469 | 25.05981 | 18975 ft | 434 kts | 63° |
| 2026-04-21 10:00 | 38.13763 | 25.09328 | 18860 ft | 417 kts | 63° |
| 2026-04-21 10:00 | 38.15023 | 25.12589 | 18769 ft | 399 kts | 63° |
| 2026-04-21 10:01 | 38.16153 | 25.15517 | 18677 ft | 383 kts | 63° |
| 2026-04-21 10:01 | 38.17324 | 25.18554 | 18587 ft | 368 kts | 63° |
| 2026-04-21 10:01 | 38.18442 | 25.21457 | 18494 ft | 354 kts | 62° |
| 2026-04-21 10:01 | 38.19505 | 25.24211 | 18281 ft | 346 kts | 62° |
| 2026-04-21 10:02 | 38.21559 | 25.29539 | 17555 ft | 341 kts | 62° |
| 2026-04-21 10:02 | 38.22440 | 25.31829 | 17227 ft | 339 kts | 62° |
| 2026-04-21 10:02 | 38.23272 | 25.33994 | 16921 ft | 337 kts | 62° |
| 2026-04-21 10:03 | 38.24196 | 25.36401 | 16576 ft | 335 kts | 62° |
| 2026-04-21 10:03 | 38.25064 | 25.38666 | 16255 ft | 333 kts | 62° |
| 2026-04-21 10:03 | 38.25890 | 25.40819 | 15945 ft | 332 kts | 62° |
| 2026-04-21 10:03 | 38.26795 | 25.43185 | 15609 ft | 330 kts | 62° |
| 2026-04-21 10:04 | 38.27719 | 25.45599 | 15147 ft | 327 kts | 62° |
| 2026-04-21 10:04 | 38.28595 | 25.47891 | 14579 ft | 325 kts | 62° |
| 2026-04-21 10:04 | 38.29571 | 25.50447 | 14002 ft | 321 kts | 62° |
| 2026-04-21 10:04 | 38.30539 | 25.52982 | 13388 ft | 319 kts | 62° |
| 2026-04-21 10:05 | 38.31500 | 25.55504 | 12792 ft | 315 kts | 62° |
| 2026-04-21 10:05 | 38.32446 | 25.57988 | 12200 ft | 313 kts | 62° |
| 2026-04-21 10:05 | 38.33382 | 25.60444 | 11608 ft | 310 kts | 63° |
| 2026-04-21 10:05 | 38.34317 | 25.62899 | 11001 ft | 308 kts | 63° |
| 2026-04-21 10:06 | 38.35251 | 25.65353 | 10390 ft | 306 kts | 64° |
| 2026-04-21 10:06 | 38.36174 | 25.67788 | 9798 ft | 303 kts | 65° |
| 2026-04-21 10:06 | 38.36748 | 25.70323 | 9204 ft | 300 kts | 87° |
| 2026-04-21 10:06 | 38.36487 | 25.72916 | 8564 ft | 295 kts | 114° |
| 2026-04-21 10:07 | 38.35445 | 25.75100 | 8072 ft | 285 kts | 131° |
| 2026-04-21 10:07 | 38.34193 | 25.77018 | 7480 ft | 283 kts | 133° |
| 2026-04-21 10:07 | 38.32932 | 25.78908 | 7006 ft | 276 kts | 133° |
| 2026-04-21 10:07 | 38.31735 | 25.80709 | 6902 ft | 257 kts | 134° |
| 2026-04-21 10:08 | 38.30607 | 25.82407 | 6786 ft | 241 kts | 134° |
| 2026-04-21 10:08 | 38.29561 | 25.83981 | 6609 ft | 229 kts | 134° |
| 2026-04-21 10:08 | 38.28544 | 25.85506 | 6372 ft | 222 kts | 134° |
| 2026-04-21 10:08 | 38.27557 | 25.86997 | 6051 ft | 219 kts | 134° |
| 2026-04-21 10:09 | 38.26584 | 25.88459 | 5676 ft | 219 kts | 134° |
| 2026-04-21 10:09 | 38.25604 | 25.89922 | 5367 ft | 215 kts | 134° |
| 2026-04-21 10:09 | 38.24725 | 25.91446 | 5024 ft | 213 kts | 126° |
| 2026-04-21 10:09 | 38.23935 | 25.93065 | 4555 ft | 216 kts | 125° |
| 2026-04-21 10:10 | 38.23162 | 25.94659 | 4275 ft | 211 kts | 125° |
| 2026-04-21 10:10 | 38.22387 | 25.96263 | 3876 ft | 211 kts | 126° |
| 2026-04-21 10:10 | 38.21622 | 25.97827 | 3523 ft | 210 kts | 126° |
| 2026-04-21 10:10 | 38.20848 | 25.99401 | 3184 ft | 209 kts | 125° |
| 2026-04-21 10:11 | 38.20086 | 26.00958 | 2878 ft | 203 kts | 126° |
| 2026-04-21 10:11 | 38.19349 | 26.02466 | 2473 ft | 202 kts | 125° |
| 2026-04-21 10:11 | 38.18600 | 26.03973 | 2312 ft | 198 kts | 125° |
| 2026-04-21 10:11 | 38.17862 | 26.05458 | 2325 ft | 203 kts | 125° |
| 2026-04-21 10:12 | 38.17103 | 26.07016 | 2315 ft | 206 kts | 124° |
| 2026-04-21 10:12 | 38.16680 | 26.08727 | 2295 ft | 212 kts | 91° |
| 2026-04-21 10:12 | 38.17160 | 26.10482 | 2342 ft | 219 kts | 57° |
| 2026-04-21 10:12 | 38.18278 | 26.11813 | 2316 ft | 224 kts | 30° |
| 2026-04-21 10:13 | 38.19719 | 26.12282 | 2292 ft | 202 kts | 352° |
| 2026-04-21 10:13 | 38.20973 | 26.11896 | 2336 ft | 175 kts | 342° |
| 2026-04-21 10:13 | 38.22163 | 26.11799 | 2359 ft | 172 kts | 6° |
| 2026-04-21 10:13 | 38.23331 | 26.12029 | 2310 ft | 170 kts | 8° |
| 2026-04-21 10:14 | 38.24491 | 26.12276 | 2317 ft | 169 kts | 8° |
| 2026-04-21 10:14 | 38.25668 | 26.12437 | 2324 ft | 174 kts | 2° |
| 2026-04-21 10:14 | 38.26917 | 26.12559 | 1982 ft | 178 kts | 4° |
| 2026-04-21 10:14 | 38.28126 | 26.12724 | 1627 ft | 171 kts | 9° |
| 2026-04-21 10:15 | 38.29312 | 26.12979 | 1135 ft | 175 kts | 10° |
| 2026-04-21 10:15 | 38.30473 | 26.13221 | 699 ft | 164 kts | 9° |
| 2026-04-21 10:15 | 38.31597 | 26.13457 | 388 ft | 168 kts | 10° |
| 2026-04-21 10:15 | 38.32721 | 26.13705 | 189 ft | 166 kts | 10° |
| 2026-04-21 10:16 | 38.33841 | 26.13948 | 32 ft | 156 kts | 10° |
| 2026-04-21 10:16 | 38.34815 | 26.14163 | 28 ft | 139 kts | 11° |
| 2026-04-21 10:16 | 38.35787 | 26.14436 | 18 ft | 147 kts | 13° |
| 2026-04-21 10:16 | 38.36814 | 26.14750 | 548 ft | 152 kts | 15° |
| 2026-04-21 10:17 | 38.37838 | 26.15067 | 1073 ft | 157 kts | 13° |
| 2026-04-21 10:17 | 38.38934 | 26.15364 | 1471 ft | 172 kts | 12° |
| 2026-04-21 10:17 | 38.40179 | 26.15690 | 1311 ft | 188 kts | 11° |
| 2026-04-21 10:17 | 38.41414 | 26.16012 | 1325 ft | 177 kts | 12° |
| 2026-04-21 10:18 | 38.42657 | 26.16346 | 1419 ft | 187 kts | 12° |
| 2026-04-21 10:18 | 38.43927 | 26.16677 | 1396 ft | 185 kts | 11° |
| 2026-04-21 10:18 | 38.45177 | 26.16993 | 1395 ft | 184 kts | 11° |
| 2026-04-21 10:18 | 38.46449 | 26.17310 | 1404 ft | 190 kts | 11° |
| 2026-04-21 10:19 | 38.47797 | 26.17645 | 1414 ft | 204 kts | 11° |
| 2026-04-21 10:19 | 38.49200 | 26.17994 | 1386 ft | 204 kts | 11° |
| 2026-04-21 10:19 | 38.50609 | 26.18345 | 1656 ft | 213 kts | 11° |
| 2026-04-21 10:19 | 38.52057 | 26.18756 | 1799 ft | 211 kts | 20° |
| 2026-04-21 10:20 | 38.53150 | 26.19850 | 1763 ft | 201 kts | 63° |
| 2026-04-21 10:20 | 38.53334 | 26.21563 | 1806 ft | 196 kts | 109° |
| 2026-04-21 10:20 | 38.52526 | 26.22872 | 1793 ft | 190 kts | 154° |
| 2026-04-21 10:20 | 38.51238 | 26.23212 | 1963 ft | 195 kts | 185° |
| 2026-04-21 10:21 | 38.49889 | 26.22602 | 2291 ft | 220 kts | 210° |
| 2026-04-21 10:21 | 38.48466 | 26.21721 | 2347 ft | 235 kts | 201° |
| 2026-04-21 10:21 | 38.46963 | 26.20999 | 2280 ft | 227 kts | 200° |
| 2026-04-21 10:21 | 38.45490 | 26.20266 | 2288 ft | 229 kts | 201° |
| 2026-04-21 10:22 | 38.44014 | 26.19505 | 2289 ft | 230 kts | 202° |
| 2026-04-21 10:22 | 38.42536 | 26.18730 | 2291 ft | 230 kts | 202° |
| 2026-04-21 10:22 | 38.41063 | 26.17954 | 2290 ft | 230 kts | 202° |
| 2026-04-21 10:22 | 38.39590 | 26.17176 | 2291 ft | 230 kts | 202° |
| 2026-04-21 10:23 | 38.38097 | 26.16388 | 2292 ft | 230 kts | 202° |
| 2026-04-21 10:23 | 38.36625 | 26.15611 | 2292 ft | 230 kts | 202° |
| 2026-04-21 10:23 | 38.35157 | 26.14837 | 2292 ft | 230 kts | 202° |
| 2026-04-21 10:23 | 38.33701 | 26.14068 | 2277 ft | 218 kts | 203° |
| 2026-04-21 10:24 | 38.32542 | 26.13015 | 2286 ft | 197 kts | 227° |
| 2026-04-21 10:24 | 38.31645 | 26.11817 | 2292 ft | 181 kts | 224° |
| 2026-04-21 10:24 | 38.30783 | 26.10668 | 2295 ft | 178 kts | 225° |
| 2026-04-21 10:24 | 38.29923 | 26.09512 | 2298 ft | 179 kts | 227° |
| 2026-04-21 10:25 | 38.29359 | 26.08094 | 2302 ft | 190 kts | 256° |
| 2026-04-21 10:25 | 38.29090 | 26.06336 | 2318 ft | 212 kts | 255° |
| 2026-04-21 10:25 | 38.28700 | 26.04499 | 2283 ft | 212 kts | 251° |
| 2026-04-21 10:25 | 38.28260 | 26.02699 | 2288 ft | 213 kts | 250° |
| 2026-04-21 10:26 | 38.27808 | 26.00910 | 2290 ft | 213 kts | 250° |
| 2026-04-21 10:26 | 38.27353 | 25.99119 | 2290 ft | 213 kts | 250° |
| 2026-04-21 10:26 | 38.26898 | 25.97331 | 2291 ft | 213 kts | 250° |
| 2026-04-21 10:26 | 38.26435 | 25.95515 | 2292 ft | 213 kts | 250° |
| 2026-04-21 10:27 | 38.25943 | 25.93757 | 2288 ft | 212 kts | 242° |
| 2026-04-21 10:27 | 38.25043 | 25.92322 | 2275 ft | 200 kts | 214° |
| 2026-04-21 10:27 | 38.23839 | 25.91661 | 2288 ft | 180 kts | 191° |
| 2026-04-21 10:27 | 38.22634 | 25.91631 | 2321 ft | 171 kts | 171° |
| 2026-04-21 10:28 | 38.21523 | 25.92174 | 2298 ft | 177 kts | 149° |
| 2026-04-21 10:28 | 38.20624 | 25.93271 | 2286 ft | 178 kts | 127° |
| 2026-04-21 10:28 | 38.20130 | 25.94709 | 2293 ft | 183 kts | 104° |
| 2026-04-21 10:28 | 38.20123 | 25.96332 | 2292 ft | 187 kts | 80° |
| 2026-04-21 10:29 | 38.20644 | 25.97859 | 2293 ft | 190 kts | 57° |
| 2026-04-21 10:29 | 38.21389 | 25.99244 | 2295 ft | 191 kts | 59° |
| 2026-04-21 10:29 | 38.22104 | 26.00664 | 2299 ft | 188 kts | 59° |
| 2026-04-21 10:29 | 38.22738 | 26.02107 | 2224 ft | 183 kts | 74° |
| 2026-04-21 10:30 | 38.22887 | 26.03675 | 1762 ft | 176 kts | 97° |
| 2026-04-21 10:30 | 38.22718 | 26.05141 | 1928 ft | 167 kts | 104° |
| 2026-04-21 10:30 | 38.22468 | 26.06654 | 2032 ft | 183 kts | 105° |
| 2026-04-21 10:30 | 38.22198 | 26.08243 | 1981 ft | 181 kts | 105° |
| 2026-04-21 10:31 | 38.21966 | 26.09805 | 1979 ft | 172 kts | 96° |
| 2026-04-21 10:31 | 38.22244 | 26.11174 | 2004 ft | 161 kts | 57° |
| 2026-04-21 10:31 | 38.23160 | 26.12030 | 2022 ft | 168 kts | 18° |
| 2026-04-21 10:31 | 38.24306 | 26.12259 | 2002 ft | 167 kts | 6° |
| 2026-04-21 10:32 | 38.25454 | 26.12441 | 1989 ft | 166 kts | 7° |
| 2026-04-21 10:32 | 38.26601 | 26.12641 | 1998 ft | 166 kts | 7° |
| 2026-04-21 10:32 | 38.27742 | 26.12847 | 1895 ft | 169 kts | 7° |
| 2026-04-21 10:32 | 38.28917 | 26.13025 | 1503 ft | 168 kts | 6° |
| 2026-04-21 10:33 | 38.30043 | 26.13194 | 972 ft | 161 kts | 7° |
| 2026-04-21 10:33 | 38.31140 | 26.13384 | 546 ft | 157 kts | 8° |
| 2026-04-21 10:33 | 38.32217 | 26.13604 | 308 ft | 160 kts | 10° |
| 2026-04-21 10:33 | 38.33309 | 26.13844 | 93 ft | 151 kts | 9° |
| 2026-04-21 10:34 | 38.34206 | 26.14035 | 27 ft | 95 kts | 9° |
| 2026-04-21 10:34 | 38.34589 | 26.14117 | 27 ft | 31 kts | 12° |
| 2026-04-21 10:34 | 38.34774 | 26.14161 | 27 ft | 22 kts | 9° |